createdAt,value
2023-02-22T00:00:46.102Z,1.00
2023-02-22T00:03:39.195Z,1.00
2023-02-22T00:06:06.327Z,1.00
2023-02-22T00:08:34.569Z,1.00
2023-02-22T00:11:03.274Z,1.00
2023-02-22T00:13:29.972Z,1.00
2023-02-22T00:16:00.194Z,1.00
2023-02-22T00:18:29.986Z,1.00
2023-02-22T00:20:59.906Z,1.00
2023-02-22T00:23:28.439Z,1.00
2023-02-22T00:25:55.421Z,1.00
2023-02-22T00:28:24.121Z,1.00
2023-02-22T00:30:51.130Z,1.00
2023-02-22T00:33:17.998Z,1.00
2023-02-22T00:35:46.030Z,1.00
2023-02-22T00:38:13.907Z,1.00
2023-02-22T00:40:40.544Z,1.00
2023-02-22T00:43:07.318Z,1.00
2023-02-22T00:45:36.047Z,1.00
2023-02-22T00:48:03.399Z,1.00
2023-02-22T00:50:31.028Z,1.00
2023-02-22T00:52:59.488Z,1.00
2023-02-22T00:55:30.685Z,1.00
2023-02-22T00:57:57.469Z,1.00
2023-02-22T01:00:25.899Z,1.00
2023-02-22T01:02:52.902Z,1.00
2023-02-22T01:05:22.281Z,1.00
2023-02-22T01:07:49.692Z,1.00
2023-02-22T01:10:17.950Z,1.00
2023-02-22T01:12:44.710Z,52.80
2023-02-22T01:15:11.388Z,81.10
2023-02-22T01:17:38.782Z,99.90
2023-02-22T01:20:12.709Z,99.90
2023-02-22T01:22:43.494Z,99.90
2023-02-22T01:25:10.879Z,99.90
2023-02-22T01:27:38.656Z,99.90
2023-02-22T01:30:08.588Z,99.90
2023-02-22T01:32:36.434Z,99.90
2023-02-22T01:35:04.996Z,99.90
2023-02-22T01:37:32.365Z,99.90
2023-02-22T01:40:00.208Z,99.90
2023-02-22T01:42:27.021Z,99.90
2023-02-22T01:45:30.915Z,99.90
2023-02-22T01:48:03.261Z,99.90
2023-02-22T01:50:29.937Z,99.90
2023-02-22T01:52:56.844Z,99.90
2023-02-22T01:55:23.689Z,99.90
2023-02-22T01:57:50.272Z,99.90
2023-02-22T02:00:21.791Z,99.90
2023-02-22T02:02:53.306Z,99.90
2023-02-22T02:05:19.965Z,99.90
2023-02-22T02:07:46.648Z,99.90
2023-02-22T02:10:16.949Z,99.90
2023-02-22T02:12:45.377Z,99.90
2023-02-22T02:15:25.274Z,99.90
2023-02-22T02:17:53.816Z,99.90
2023-02-22T02:20:38.676Z,99.90
2023-02-22T02:23:43.131Z,99.90
2023-02-22T02:26:43.331Z,99.90
2023-02-22T02:29:18.600Z,99.90
2023-02-22T02:32:21.672Z,99.90
2023-02-22T02:34:54.264Z,99.90
2023-02-22T02:37:33.230Z,99.90
2023-02-22T02:40:41.289Z,99.90
2023-02-22T02:43:29.967Z,99.90
2023-02-22T02:46:19.494Z,99.90
2023-02-22T02:48:50.376Z,99.90
2023-02-22T02:51:17.495Z,99.90
2023-02-22T02:53:46.172Z,99.90
2023-02-22T02:56:12.880Z,99.90
2023-02-22T02:58:49.096Z,99.90
2023-02-22T03:01:27.139Z,99.90
2023-02-22T03:04:22.913Z,99.90
2023-02-22T03:06:57.332Z,99.90
2023-02-22T03:09:46.725Z,99.90
2023-02-22T03:12:17.670Z,99.90
2023-02-22T03:15:01.580Z,99.90
2023-02-22T03:17:41.452Z,99.90
2023-02-22T03:20:45.404Z,99.90
2023-02-22T03:23:24.704Z,99.90
2023-02-22T03:26:01.705Z,99.90
2023-02-22T03:28:28.550Z,99.90
2023-02-22T03:31:05.431Z,99.90
2023-02-22T03:33:41.534Z,99.90
2023-02-22T03:36:16.091Z,99.90
2023-02-22T03:38:42.987Z,99.90
2023-02-22T03:41:09.988Z,99.90
2023-02-22T03:43:44.654Z,99.90
2023-02-22T03:46:11.680Z,99.90
2023-02-22T03:48:51.695Z,99.90
2023-02-22T03:51:18.835Z,99.90
2023-02-22T03:53:45.759Z,99.90
2023-02-22T03:56:15.255Z,99.90
2023-02-22T03:58:44.034Z,99.90
2023-02-22T04:01:11.338Z,99.90
2023-02-22T04:03:38.197Z,99.90
2023-02-22T04:06:04.980Z,99.90
2023-02-22T04:08:31.841Z,99.90
2023-02-22T04:10:58.842Z,99.90
2023-02-22T04:13:27.619Z,99.90
2023-02-22T04:15:54.336Z,99.90
2023-02-22T04:18:20.970Z,99.90
2023-02-22T04:20:47.585Z,99.90
2023-02-22T04:23:14.213Z,99.90
2023-02-22T04:25:41.048Z,99.90
2023-02-22T04:28:07.766Z,99.90
2023-02-22T04:30:34.451Z,99.90
2023-02-22T04:33:01.103Z,99.90
2023-02-22T04:35:27.979Z,99.90
2023-02-22T04:37:54.646Z,99.90
2023-02-22T04:40:21.483Z,99.90
2023-02-22T04:42:48.352Z,99.90
2023-02-22T04:45:14.992Z,99.90
2023-02-22T04:47:41.625Z,99.90
2023-02-22T04:50:08.893Z,99.90
2023-02-22T04:52:35.555Z,99.90
2023-02-22T04:55:02.238Z,99.90
2023-02-22T04:57:29.034Z,99.90
2023-02-22T04:59:56.003Z,99.90
2023-02-22T05:02:22.598Z,99.90
2023-02-22T05:04:49.348Z,99.90
2023-02-22T05:07:16.125Z,99.90
2023-02-22T05:09:42.769Z,99.90
2023-02-22T05:12:09.424Z,99.90
2023-02-22T05:14:36.115Z,99.90
2023-02-22T05:17:03.099Z,99.90
2023-02-22T05:19:31.668Z,99.90
2023-02-22T05:21:58.276Z,99.90
2023-02-22T05:24:25.165Z,99.90
2023-02-22T05:26:53.181Z,99.90
2023-02-22T05:29:20.337Z,99.90
2023-02-22T05:31:47.019Z,99.90
2023-02-22T05:34:14.320Z,99.90
2023-02-22T05:36:41.226Z,99.90
2023-02-22T05:39:07.911Z,99.90
2023-02-22T05:41:34.559Z,99.90
2023-02-22T05:44:03.350Z,99.90
2023-02-22T05:46:30.007Z,99.90
2023-02-22T05:48:56.685Z,99.90
2023-02-22T05:51:23.328Z,99.90
2023-02-22T05:53:52.091Z,99.90
2023-02-22T05:56:28.003Z,99.90
2023-02-22T05:58:54.859Z,63.90
2023-02-22T06:01:21.866Z,32.70
2023-02-22T06:03:49.316Z,23.60
2023-02-22T06:06:16.556Z,13.00
2023-02-22T06:08:43.258Z,20.10
2023-02-22T06:11:10.306Z,10.20
2023-02-22T06:13:36.964Z,39.80
2023-02-22T06:16:03.972Z,84.30
2023-02-22T06:18:31.311Z,12.40
2023-02-22T06:20:58.892Z,1.00
2023-02-22T06:23:25.919Z,1.00
2023-02-22T06:25:52.548Z,1.00
2023-02-22T06:28:19.207Z,1.00
2023-02-22T06:30:46.225Z,1.00
2023-02-22T06:33:12.955Z,8.20
2023-02-22T06:35:39.620Z,22.10
2023-02-22T06:38:06.260Z,2.60
2023-02-22T06:40:32.952Z,1.00
2023-02-22T06:42:59.954Z,1.00
2023-02-22T06:45:26.716Z,1.00
2023-02-22T06:47:53.390Z,1.00
2023-02-22T06:50:25.276Z,1.00
2023-02-22T06:52:52.161Z,1.00
2023-02-22T06:55:24.071Z,1.00
2023-02-22T06:57:50.682Z,1.00
2023-02-22T07:00:18.822Z,1.00
2023-02-22T07:02:46.615Z,1.00
2023-02-22T07:05:13.232Z,1.00
2023-02-22T07:07:40.044Z,1.00
2023-02-22T07:10:08.186Z,1.00
2023-02-22T07:12:35.337Z,1.00
2023-02-22T07:15:01.969Z,1.00
2023-02-22T07:17:28.575Z,1.00
2023-02-22T07:19:55.196Z,1.00
2023-02-22T07:22:21.795Z,1.00
2023-02-22T07:24:48.428Z,1.00
2023-02-22T07:27:15.069Z,1.00
2023-02-22T07:29:45.112Z,1.00
2023-02-22T07:32:12.088Z,1.00
2023-02-22T07:34:38.797Z,1.00
2023-02-22T07:37:05.425Z,1.00
2023-02-22T07:39:32.088Z,1.00
2023-02-22T07:41:59.178Z,1.00
2023-02-22T07:44:25.795Z,1.00
2023-02-22T07:46:52.456Z,99.90
2023-02-22T07:49:19.094Z,99.90
2023-02-22T07:51:45.737Z,99.90
2023-02-22T07:54:12.349Z,99.90
2023-02-22T07:56:47.163Z,99.90
2023-02-22T07:59:14.401Z,99.90
2023-02-22T08:01:41.120Z,99.90
2023-02-22T08:04:07.835Z,99.90
2023-02-22T08:06:34.597Z,99.90
2023-02-22T08:09:01.232Z,99.90
2023-02-22T08:11:27.888Z,99.90
2023-02-22T08:13:54.537Z,92.50
2023-02-22T08:16:21.167Z,37.20
2023-02-22T08:18:47.800Z,13.10
2023-02-22T08:21:14.831Z,1.00
2023-02-22T08:23:41.747Z,1.00
2023-02-22T08:26:09.933Z,1.00
2023-02-22T08:28:36.869Z,1.00
2023-02-22T08:31:03.497Z,1.00
2023-02-22T08:33:30.374Z,1.00
2023-02-22T08:35:57.017Z,1.00
2023-02-22T08:38:26.321Z,1.00
2023-02-22T08:40:53.091Z,1.00
2023-02-22T08:43:19.970Z,1.00
2023-02-22T08:45:47.014Z,1.00
2023-02-22T08:48:14.144Z,1.00
2023-02-22T08:50:41.858Z,1.00
2023-02-22T08:53:09.107Z,1.00
2023-02-22T08:55:37.986Z,1.00
2023-02-22T08:58:05.472Z,1.00
2023-02-22T09:00:33.474Z,1.00
2023-02-22T09:03:03.445Z,1.00
2023-02-22T09:05:31.447Z,1.00
2023-02-22T09:07:58.585Z,1.00
2023-02-22T09:10:26.962Z,99.90
2023-02-22T09:12:55.445Z,99.90
2023-02-22T09:15:22.473Z,99.90
2023-02-22T09:17:49.209Z,99.90
2023-02-22T09:20:17.905Z,99.90
2023-02-22T09:22:48.084Z,99.90
2023-02-22T09:25:17.089Z,99.90
2023-02-22T09:27:44.336Z,99.90
2023-02-22T09:30:23.404Z,99.90
2023-02-22T09:32:54.458Z,88.50
2023-02-22T09:35:26.844Z,4.80
2023-02-22T09:37:59.186Z,2.10
2023-02-22T09:40:33.059Z,1.00
2023-02-22T09:43:14.776Z,1.00
2023-02-22T09:46:03.729Z,1.00
2023-02-22T09:48:31.849Z,1.00
2023-02-22T09:50:58.998Z,1.00
2023-02-22T09:53:30.074Z,1.00
2023-02-22T09:56:04.618Z,1.00
2023-02-22T09:58:35.223Z,1.00
2023-02-22T10:01:18.744Z,1.00
2023-02-22T10:04:13.334Z,1.00
2023-02-22T10:06:41.213Z,1.00
2023-02-22T10:09:09.354Z,1.00
2023-02-22T10:11:56.240Z,1.00
2023-02-22T10:14:34.745Z,1.00
2023-02-22T10:17:14.377Z,1.00
2023-02-22T10:19:44.017Z,1.00
2023-02-22T10:22:30.647Z,1.00
2023-02-22T10:25:05.034Z,1.00
2023-02-22T10:27:42.889Z,1.00
2023-02-22T10:30:25.346Z,1.00
2023-02-22T10:33:18.016Z,1.00
2023-02-22T10:35:46.860Z,1.00
2023-02-22T10:38:20.083Z,1.00
2023-02-22T10:41:15.536Z,1.00
2023-02-22T10:43:43.473Z,1.00
2023-02-22T10:46:13.577Z,1.00
2023-02-22T10:48:40.729Z,1.00
2023-02-22T10:51:08.563Z,1.00
2023-02-22T10:53:38.205Z,1.00
2023-02-22T10:56:08.881Z,1.00
2023-02-22T10:59:02.574Z,1.00
2023-02-22T11:01:32.408Z,1.00
2023-02-22T11:04:07.701Z,1.00
2023-02-22T11:06:34.921Z,1.00
2023-02-22T11:09:10.420Z,1.00
2023-02-22T11:11:37.692Z,1.00
2023-02-22T11:14:06.640Z,1.00
2023-02-22T11:16:42.042Z,1.00
2023-02-22T11:19:24.704Z,1.00
2023-02-22T11:32:53.152Z,1.00
2023-02-22T11:35:50.325Z,1.00
2023-02-22T11:38:21.209Z,1.00
2023-02-22T11:41:04.294Z,1.00
2023-02-22T11:43:31.303Z,1.00
2023-02-22T11:46:02.390Z,1.00
2023-02-22T11:48:31.062Z,1.00
2023-02-22T11:51:18.886Z,1.00
2023-02-22T11:53:53.392Z,1.00
2023-02-22T11:56:52.310Z,1.00
2023-02-22T11:59:18.894Z,1.00
2023-02-22T12:01:51.349Z,1.00
2023-02-22T12:04:42.962Z,1.00
2023-02-22T12:07:16.093Z,1.00
2023-02-22T12:10:01.073Z,1.00
2023-02-22T12:12:38.269Z,1.00
2023-02-22T12:15:23.916Z,1.00
2023-02-22T12:18:00.551Z,1.00
2023-02-22T12:20:40.170Z,1.00
2023-02-22T12:23:12.918Z,1.00
2023-02-22T12:25:47.322Z,1.00
2023-02-22T12:28:29.026Z,1.00
2023-02-22T12:31:19.218Z,1.00
2023-02-22T12:33:51.802Z,1.00
2023-02-22T12:36:20.894Z,1.00
2023-02-22T12:38:52.211Z,1.00
2023-02-22T12:41:26.927Z,1.00
2023-02-22T12:44:02.775Z,1.00
2023-02-22T12:46:37.880Z,1.00
2023-02-22T12:49:24.797Z,1.00
2023-02-22T12:52:20.587Z,1.00
2023-02-22T12:55:01.699Z,1.00
2023-02-22T12:57:38.182Z,1.00
2023-02-22T13:00:23.064Z,1.00
2023-02-22T13:03:01.758Z,1.00
2023-02-22T13:05:31.256Z,1.00
2023-02-22T13:08:19.852Z,1.00
2023-02-22T13:10:52.616Z,1.00
2023-02-22T13:13:43.459Z,1.00
2023-02-22T13:16:10.017Z,1.00
2023-02-22T13:18:50.570Z,1.00
2023-02-22T13:21:30.023Z,1.00
2023-02-22T13:24:05.473Z,1.00
2023-02-22T13:26:34.969Z,1.00
2023-02-22T13:29:08.668Z,1.00
2023-02-22T13:32:04.980Z,1.00
2023-02-22T13:34:56.838Z,1.00
2023-02-22T13:37:45.787Z,1.00
2023-02-22T13:40:44.101Z,1.00
2023-02-22T13:43:42.374Z,1.00
2023-02-22T13:46:31.967Z,1.00
2023-02-22T13:49:24.121Z,1.00
2023-02-22T13:51:55.644Z,1.00
2023-02-22T13:54:57.381Z,1.00
2023-02-22T13:57:26.315Z,1.00
2023-02-22T14:00:22.798Z,1.00
2023-02-22T14:03:14.455Z,1.00
2023-02-22T14:05:50.026Z,1.00
2023-02-22T14:08:19.900Z,1.00
2023-02-22T14:10:55.019Z,1.00
2023-02-22T14:13:26.923Z,1.00
2023-02-22T14:16:02.580Z,1.00
2023-02-22T14:18:43.259Z,1.00
2023-02-22T14:21:20.498Z,1.00
2023-02-22T14:23:48.524Z,1.00
2023-02-22T14:26:24.062Z,1.00
2023-02-22T14:29:10.874Z,1.00
2023-02-22T14:31:43.412Z,1.00
2023-02-22T14:34:15.294Z,1.00
2023-02-22T14:36:47.822Z,1.00
2023-02-22T14:39:38.334Z,1.00
2023-02-22T14:42:16.944Z,1.00
2023-02-22T14:44:44.674Z,1.00
2023-02-22T14:47:16.676Z,1.00
2023-02-22T14:49:44.102Z,1.00
2023-02-22T14:52:27.912Z,1.00
2023-02-22T14:55:11.394Z,1.00
2023-02-22T14:57:49.932Z,1.00
2023-02-22T15:00:33.259Z,1.00
2023-02-22T15:03:00.263Z,1.00
2023-02-22T15:05:30.008Z,1.00
2023-02-22T15:07:59.110Z,1.00
2023-02-22T15:10:31.717Z,1.00
2023-02-22T15:13:09.769Z,1.00
2023-02-22T15:15:38.368Z,1.00
2023-02-22T15:18:06.626Z,1.00
2023-02-22T15:20:35.098Z,1.00
2023-02-22T15:23:01.976Z,1.00
2023-02-22T15:25:30.645Z,1.00
2023-02-22T15:28:03.886Z,1.00
2023-02-22T15:30:32.891Z,1.00
2023-02-22T15:33:14.686Z,1.00
2023-02-22T15:35:41.497Z,1.00
2023-02-22T15:38:11.246Z,1.00
2023-02-22T15:40:42.826Z,1.00
2023-02-22T15:43:19.692Z,1.00
2023-02-22T15:45:46.397Z,1.00
2023-02-22T15:48:14.781Z,1.00
2023-02-22T15:51:04.618Z,1.00
2023-02-22T15:53:43.207Z,1.00
2023-02-22T15:56:18.109Z,1.00
2023-02-22T15:58:46.094Z,1.00
2023-02-22T16:01:17.040Z,1.00
2023-02-22T16:03:49.075Z,1.00
2023-02-22T16:06:28.646Z,1.00
2023-02-22T16:08:55.961Z,1.00
2023-02-22T16:11:39.778Z,1.00
2023-02-22T16:14:23.175Z,1.00
2023-02-22T16:16:49.875Z,1.00
2023-02-22T16:19:22.373Z,1.00
2023-02-22T16:21:53.535Z,1.00
2023-02-22T16:24:31.548Z,1.00
2023-02-22T16:27:15.806Z,1.00
2023-02-22T16:29:42.707Z,1.00
2023-02-22T16:32:09.499Z,1.00
2023-02-22T16:34:36.420Z,1.00
2023-02-22T16:37:03.072Z,1.00
2023-02-22T16:39:31.021Z,1.00
2023-02-22T16:42:02.365Z,1.00
2023-02-22T16:44:29.154Z,1.00
2023-02-22T16:46:57.671Z,1.00
2023-02-22T16:49:24.692Z,1.00
2023-02-22T16:51:55.464Z,1.00
2023-02-22T16:54:43.669Z,1.00
2023-02-22T16:57:18.016Z,1.00
2023-02-22T16:59:44.653Z,1.00
2023-02-22T17:02:14.300Z,1.00
2023-02-22T17:04:41.092Z,1.00
2023-02-22T17:07:09.242Z,1.00
2023-02-22T17:09:36.165Z,1.00
2023-02-22T17:12:02.819Z,1.00
2023-02-22T17:14:31.878Z,1.00
2023-02-22T17:16:59.601Z,1.00
2023-02-22T17:19:26.551Z,1.00
2023-02-22T17:21:53.579Z,1.00
2023-02-22T17:24:24.869Z,1.00
2023-02-22T17:26:53.047Z,17.60
2023-02-22T17:29:21.004Z,71.90
2023-02-22T17:31:49.042Z,99.90
2023-02-22T17:34:15.697Z,99.90
2023-02-22T17:36:42.561Z,99.90
2023-02-22T17:39:10.584Z,99.90
2023-02-22T17:41:40.267Z,99.90
2023-02-22T17:44:07.201Z,99.90
2023-02-22T17:46:34.972Z,99.90
2023-02-22T17:49:03.210Z,99.90
2023-02-22T17:51:29.896Z,99.90
2023-02-22T17:53:56.528Z,99.90
2023-02-22T17:56:23.439Z,99.90
2023-02-22T17:58:53.296Z,99.90
2023-02-22T18:01:20.906Z,99.90
2023-02-22T18:03:47.804Z,99.90
2023-02-22T18:06:17.932Z,99.90
2023-02-22T18:08:45.000Z,99.90
2023-02-22T18:11:11.647Z,99.90
2023-02-22T18:13:38.292Z,1.00
2023-02-22T18:16:05.798Z,1.00
2023-02-22T18:18:32.782Z,1.00
2023-02-22T18:21:00.026Z,1.00
2023-02-22T18:23:30.468Z,1.00
2023-02-22T18:26:09.786Z,1.00
2023-02-22T18:28:37.575Z,1.00
2023-02-22T18:31:23.151Z,1.00
2023-02-22T18:33:51.073Z,1.00
2023-02-22T18:36:23.455Z,1.00
2023-02-22T18:38:51.677Z,1.00
2023-02-22T18:41:19.186Z,1.00
2023-02-22T18:43:50.856Z,1.00
2023-02-22T18:46:19.743Z,1.00
2023-02-22T18:48:47.138Z,1.00
2023-02-22T18:51:20.370Z,1.00
2023-02-22T18:53:48.014Z,1.00
2023-02-22T18:56:18.018Z,1.00
2023-02-22T18:58:45.025Z,14.20
2023-02-22T19:01:17.247Z,99.90
2023-02-22T19:03:44.659Z,99.90
2023-02-22T19:06:11.316Z,99.90
2023-02-22T19:08:44.545Z,99.90
2023-02-22T19:11:17.969Z,99.90
2023-02-22T19:13:46.385Z,99.90
2023-02-22T19:16:13.675Z,99.90
2023-02-22T19:18:40.560Z,99.90
2023-02-22T19:21:10.850Z,1.00
2023-02-22T19:23:39.549Z,1.00
2023-02-22T19:26:09.490Z,1.00
2023-02-22T19:28:36.175Z,1.00
2023-02-22T19:31:17.314Z,1.00
2023-02-22T19:33:44.643Z,1.00
2023-02-22T19:36:11.863Z,1.00
2023-02-22T19:38:38.494Z,1.00
2023-02-22T19:41:14.990Z,1.00
2023-02-22T19:43:41.719Z,1.00
2023-02-22T19:46:08.419Z,1.00
2023-02-22T19:48:35.372Z,1.00
2023-02-22T19:51:06.540Z,1.00
2023-02-22T19:53:39.020Z,1.00
2023-02-22T19:56:09.547Z,1.00
2023-02-22T19:58:40.416Z,1.00
2023-02-22T20:01:22.828Z,1.00
2023-02-22T20:03:56.152Z,1.00
2023-02-22T20:06:26.462Z,1.00
2023-02-22T20:08:53.413Z,1.00
2023-02-22T20:11:22.229Z,1.00
2023-02-22T20:13:48.889Z,1.00
2023-02-22T20:16:15.888Z,1.00
2023-02-22T20:18:46.077Z,1.00
2023-02-22T20:21:22.402Z,1.00
2023-02-22T20:23:49.088Z,1.00
2023-02-22T20:26:20.615Z,1.00
2023-02-22T20:28:47.298Z,1.00
2023-02-22T20:31:14.178Z,1.00
2023-02-22T20:33:41.900Z,1.00
2023-02-22T20:36:10.391Z,1.00
2023-02-22T20:38:37.480Z,99.90
2023-02-22T20:41:07.939Z,99.90
2023-02-22T20:43:34.726Z,99.90
2023-02-22T20:46:03.024Z,99.90
2023-02-22T20:48:29.812Z,99.90
2023-02-22T20:50:56.438Z,99.90
2023-02-22T20:53:25.628Z,99.90
2023-02-22T20:55:52.467Z,99.90
2023-02-22T20:58:21.669Z,99.90
2023-02-22T21:00:48.645Z,99.90
2023-02-22T21:03:15.255Z,99.90
2023-02-22T21:05:44.022Z,99.90
2023-02-22T21:08:12.311Z,99.90
2023-02-22T21:10:42.981Z,99.90
2023-02-22T21:13:11.521Z,99.90
2023-02-22T21:15:38.436Z,99.90
2023-02-22T21:18:05.305Z,99.90
2023-02-22T21:20:32.081Z,99.90
2023-02-22T21:23:01.839Z,99.90
2023-02-22T21:25:31.477Z,99.90
2023-02-22T21:28:01.221Z,99.90
2023-02-22T21:30:27.860Z,99.90
2023-02-22T21:32:55.598Z,99.90
2023-02-22T21:35:23.080Z,99.90
2023-02-22T21:37:49.860Z,99.90
2023-02-22T21:40:19.086Z,99.90
2023-02-22T21:42:48.163Z,99.90
2023-02-22T21:45:18.516Z,99.90
2023-02-22T21:47:48.273Z,99.90
2023-02-22T21:50:16.500Z,99.90
2023-02-22T21:52:43.981Z,99.90
2023-02-22T21:55:10.736Z,99.90
2023-02-22T21:57:37.996Z,99.90
2023-02-22T22:00:18.187Z,99.90
2023-02-22T22:02:48.255Z,99.90
2023-02-22T22:05:26.250Z,99.90
2023-02-22T22:07:53.061Z,99.90
2023-02-22T22:10:25.189Z,99.90
2023-02-22T22:12:52.760Z,99.90
2023-02-22T22:15:26.460Z,99.90
2023-02-22T22:17:53.058Z,99.90
2023-02-22T22:20:21.845Z,99.90
2023-02-22T22:22:49.142Z,99.90
2023-02-22T22:25:19.033Z,99.90
2023-02-22T22:27:45.948Z,99.90
2023-02-22T22:30:13.172Z,99.90
2023-02-22T22:32:40.187Z,99.90
2023-02-22T22:35:14.399Z,99.90
2023-02-22T22:37:50.977Z,99.90
2023-02-22T22:40:17.895Z,99.90
2023-02-22T22:42:45.484Z,99.90
2023-02-22T22:45:12.621Z,99.90
2023-02-22T22:47:41.268Z,99.90
2023-02-22T22:50:10.740Z,99.90
2023-02-22T22:52:37.546Z,99.90
2023-02-22T22:55:05.182Z,99.90
2023-02-22T22:57:31.787Z,99.90
2023-02-22T23:00:00.156Z,94.60
2023-02-22T23:02:27.083Z,64.50
2023-02-22T23:04:53.957Z,76.30
2023-02-22T23:07:20.981Z,72.70
2023-02-22T23:09:47.634Z,85.50
2023-02-22T23:12:18.083Z,99.90
2023-02-22T23:14:44.943Z,99.90
2023-02-22T23:17:14.854Z,92.10
2023-02-22T23:19:42.272Z,85.80
2023-02-22T23:22:08.965Z,69.30
2023-02-22T23:24:36.249Z,36.20
2023-02-22T23:27:07.072Z,20.90
2023-02-22T23:29:36.450Z,9.20
2023-02-22T23:32:05.602Z,5.90
2023-02-22T23:34:32.552Z,1.30
2023-02-22T23:36:59.174Z,7.90
2023-02-22T23:39:26.143Z,3.80
2023-02-22T23:41:53.428Z,1.00
2023-02-22T23:44:21.428Z,1.00
2023-02-22T23:46:48.938Z,1.00
2023-02-22T23:49:20.059Z,13.60
2023-02-22T23:51:46.756Z,23.70
2023-02-22T23:54:15.504Z,47.00
2023-02-22T23:56:47.255Z,72.60
2023-02-22T23:59:14.241Z,83.90
